sensor_id;sensor_type;location;lat;lon;timestamp;temperature;humidity
8481;DHT22;4277;51.354;6.740;2022-08-03T00:00:39;21.60;99.90
8481;DHT22;4277;51.354;6.740;2022-08-03T00:03:05;21.60;99.90
8481;DHT22;4277;51.354;6.740;2022-08-03T00:05:30;21.50;99.90
8481;DHT22;4277;51.354;6.740;2022-08-03T00:07:58;21.50;99.90
8481;DHT22;4277;51.354;6.740;2022-08-03T05:58:31;21.50;99.90
8481;DHT22;4277;51.354;6.740;2022-08-03T06:03:22;21.00;99.90
8481;DHT22;4277;51.354;6.740;2022-08-03T06:05:48;21.10;99.90
8481;DHT22;4277;51.354;6.740;2022-08-03T06:08:13;21.10;99.90
8481;DHT22;4277;51.354;6.740;2022-08-03T06:10:39;21.20;99.90
8481;DHT22;4277;51.354;6.740;2022-08-03T06:13:04;21.20;99.90
8481;DHT22;4277;51.354;6.740;2022-08-03T06:15:30;21.30;99.90
8481;DHT22;4277;51.354;6.740;2022-08-03T06:17:58;21.70;99.90
8481;DHT22;4277;51.354;6.740;2022-08-03T06:20:24;21.40;99.90
8481;DHT22;4277;51.354;6.740;2022-08-03T06:22:49;21.40;99.90
8481;DHT22;4277;51.354;6.740;2022-08-03T06:25:15;21.50;99.90
8481;DHT22;4277;51.354;6.740;2022-08-03T06:39:53;22.50;99.90
8481;DHT22;4277;51.354;6.740;2022-08-03T06:44:45;22.00;99.90
8481;DHT22;4277;51.354;6.740;2022-08-03T06:47:10;22.10;99.90
8481;DHT22;4277;51.354;6.740;2022-08-03T06:49:36;22.10;99.90
8481;DHT22;4277;51.354;6.740;2022-08-03T06:52:02;22.20;99.90
8481;DHT22;4277;51.354;6.740;2022-08-03T06:54:27;22.20;99.90
8481;DHT22;4277;51.354;6.740;2022-08-03T06:56:53;22.30;99.90
8481;DHT22;4277;51.354;6.740;2022-08-03T06:59:18;22.40;99.90
8481;DHT22;4277;51.354;6.740;2022-08-03T07:01:44;22.50;99.90
8481;DHT22;4277;51.354;6.740;2022-08-03T07:04:10;22.50;99.90
8481;DHT22;4277;51.354;6.740;2022-08-03T07:06:37;22.60;99.90
8481;DHT22;4277;51.354;6.740;2022-08-03T07:09:03;22.70;99.90
8481;DHT22;4277;51.354;6.740;2022-08-03T07:11:29;22.70;99.90
8481;DHT22;4277;51.354;6.740;2022-08-03T07:13:55;22.80;99.90
8481;DHT22;4277;51.354;6.740;2022-08-03T07:16:21;22.90;99.90
8481;DHT22;4277;51.354;6.740;2022-08-03T07:18:46;22.90;99.90
8481;DHT22;4277;51.354;6.740;2022-08-03T07:21:12;22.90;98.50
8481;DHT22;4277;51.354;6.740;2022-08-03T07:23:37;23.00;99.90
8481;DHT22;4277;51.354;6.740;2022-08-03T07:26:03;23.10;99.00
8481;DHT22;4277;51.354;6.740;2022-08-03T07:28:29;23.00;98.80
8481;DHT22;4277;51.354;6.740;2022-08-03T07:30:56;23.20;98.40
8481;DHT22;4277;51.354;6.740;2022-08-03T07:33:21;23.10;97.10
8481;DHT22;4277;51.354;6.740;2022-08-03T07:35:47;23.20;98.00
8481;DHT22;4277;51.354;6.740;2022-08-03T07:38:12;23.30;97.80
8481;DHT22;4277;51.354;6.740;2022-08-03T07:40:38;23.40;97.70
8481;DHT22;4277;51.354;6.740;2022-08-03T07:43:04;23.40;94.80
8481;DHT22;4277;51.354;6.740;2022-08-03T07:45:30;23.50;97.00
8481;DHT22;4277;51.354;6.740;2022-08-03T07:47:56;23.50;94.80
8481;DHT22;4277;51.354;6.740;2022-08-03T07:50:21;23.60;95.60
8481;DHT22;4277;51.354;6.740;2022-08-03T07:52:47;23.90;94.10
8481;DHT22;4277;51.354;6.740;2022-08-03T07:55:19;23.90;93.10
8481;DHT22;4277;51.354;6.740;2022-08-03T07:57:45;23.90;94.10
8481;DHT22;4277;51.354;6.740;2022-08-03T08:00:16;24.00;93.00
8481;DHT22;4277;51.354;6.740;2022-08-03T08:02:43;24.10;91.60
8481;DHT22;4277;51.354;6.740;2022-08-03T08:05:09;24.20;90.90
8481;DHT22;4277;51.354;6.740;2022-08-03T08:07:35;24.10;91.20
8481;DHT22;4277;51.354;6.740;2022-08-03T08:10:03;24.10;90.30
8481;DHT22;4277;51.354;6.740;2022-08-03T08:12:29;24.30;91.90
8481;DHT22;4277;51.354;6.740;2022-08-03T08:14:54;24.30;86.40
8481;DHT22;4277;51.354;6.740;2022-08-03T08:17:20;24.30;88.10
8481;DHT22;4277;51.354;6.740;2022-08-03T08:19:46;24.40;89.50
8481;DHT22;4277;51.354;6.740;2022-08-03T08:22:11;24.50;85.30
8481;DHT22;4277;51.354;6.740;2022-08-03T08:24:37;24.50;84.60
8481;DHT22;4277;51.354;6.740;2022-08-03T08:27:03;24.40;91.30
8481;DHT22;4277;51.354;6.740;2022-08-03T08:29:28;24.60;86.50
8481;DHT22;4277;51.354;6.740;2022-08-03T08:31:54;24.60;87.20
8481;DHT22;4277;51.354;6.740;2022-08-03T08:34:19;24.80;86.90
8481;DHT22;4277;51.354;6.740;2022-08-03T08:36:45;24.80;84.60
8481;DHT22;4277;51.354;6.740;2022-08-03T08:39:10;25.00;82.10
8481;DHT22;4277;51.354;6.740;2022-08-03T08:41:36;25.00;82.80
8481;DHT22;4277;51.354;6.740;2022-08-03T08:44:02;25.10;79.40
8481;DHT22;4277;51.354;6.740;2022-08-03T08:46:31;25.20;79.50
8481;DHT22;4277;51.354;6.740;2022-08-03T08:48:58;25.30;77.00
8481;DHT22;4277;51.354;6.740;2022-08-03T08:51:28;25.30;76.70
8481;DHT22;4277;51.354;6.740;2022-08-03T08:53:56;25.30;79.80
8481;DHT22;4277;51.354;6.740;2022-08-03T08:56:25;25.30;79.00
8481;DHT22;4277;51.354;6.740;2022-08-03T08:58:53;25.30;79.00
8481;DHT22;4277;51.354;6.740;2022-08-03T09:01:21;25.20;84.50
8481;DHT22;4277;51.354;6.740;2022-08-03T09:03:47;25.50;76.90
8481;DHT22;4277;51.354;6.740;2022-08-03T09:06:12;25.60;75.20
8481;DHT22;4277;51.354;6.740;2022-08-03T09:08:39;25.70;74.20
8481;DHT22;4277;51.354;6.740;2022-08-03T09:11:05;25.70;77.60
8481;DHT22;4277;51.354;6.740;2022-08-03T09:13:32;25.60;72.20
8481;DHT22;4277;51.354;6.740;2022-08-03T09:16:14;25.80;71.50
8481;DHT22;4277;51.354;6.740;2022-08-03T09:18:42;25.80;73.70
8481;DHT22;4277;51.354;6.740;2022-08-03T09:23:49;26.00;74.50
8481;DHT22;4277;51.354;6.740;2022-08-03T09:26:23;26.20;62.90
8481;DHT22;4277;51.354;6.740;2022-08-03T09:31:32;26.40;55.50
8481;DHT22;4277;51.354;6.740;2022-08-03T09:34:01;26.60;50.20
8481;DHT22;4277;51.354;6.740;2022-08-03T09:37:02;26.50;56.50
8481;DHT22;4277;51.354;6.740;2022-08-03T09:39:37;26.60;47.60
8481;DHT22;4277;51.354;6.740;2022-08-03T09:44:38;26.80;50.50
8481;DHT22;4277;51.354;6.740;2022-08-03T09:47:07;26.80;51.10
8481;DHT22;4277;51.354;6.740;2022-08-03T09:49:34;27.00;48.50
8481;DHT22;4277;51.354;6.740;2022-08-03T09:52:11;27.00;40.80
8481;DHT22;4277;51.354;6.740;2022-08-03T09:54:37;27.00;44.50
8481;DHT22;4277;51.354;6.740;2022-08-03T09:57:03;27.20;37.10
8481;DHT22;4277;51.354;6.740;2022-08-03T09:59:30;27.10;45.80
8481;DHT22;4277;51.354;6.740;2022-08-03T10:01:57;27.20;41.50
8481;DHT22;4277;51.354;6.740;2022-08-03T10:04:24;27.20;34.80
8481;DHT22;4277;51.354;6.740;2022-08-03T10:07:07;27.20;32.00
8481;DHT22;4277;51.354;6.740;2022-08-03T10:09:34;27.40;34.10
8481;DHT22;4277;51.354;6.740;2022-08-03T10:12:11;27.40;37.00
8481;DHT22;4277;51.354;6.740;2022-08-03T10:14:38;27.50;32.20
8481;DHT22;4277;51.354;6.740;2022-08-03T10:17:04;27.60;31.60
8481;DHT22;4277;51.354;6.740;2022-08-03T10:19:29;27.50;33.70
8481;DHT22;4277;51.354;6.740;2022-08-03T10:21:57;27.60;30.00
8481;DHT22;4277;51.354;6.740;2022-08-03T10:24:28;27.60;38.10
8481;DHT22;4277;51.354;6.740;2022-08-03T10:27:07;27.60;32.30
8481;DHT22;4277;51.354;6.740;2022-08-03T10:29:37;27.80;27.20
8481;DHT22;4277;51.354;6.740;2022-08-03T10:32:15;27.70;28.80
8481;DHT22;4277;51.354;6.740;2022-08-03T10:34:43;28.00;23.60
8481;DHT22;4277;51.354;6.740;2022-08-03T10:37:10;28.00;30.60
8481;DHT22;4277;51.354;6.740;2022-08-03T10:39:38;28.10;25.60
8481;DHT22;4277;51.354;6.740;2022-08-03T10:42:22;28.00;22.40
8481;DHT22;4277;51.354;6.740;2022-08-03T10:44:52;28.10;26.80
8481;DHT22;4277;51.354;6.740;2022-08-03T10:47:19;28.40;18.90
8481;DHT22;4277;51.354;6.740;2022-08-03T10:49:47;28.50;17.90
8481;DHT22;4277;51.354;6.740;2022-08-03T10:52:14;28.30;20.70
8481;DHT22;4277;51.354;6.740;2022-08-03T10:54:43;28.40;21.10
8481;DHT22;4277;51.354;6.740;2022-08-03T11:00:11;28.70;16.30
8481;DHT22;4277;51.354;6.740;2022-08-03T11:03:06;28.70;17.60
8481;DHT22;4277;51.354;6.740;2022-08-03T11:05:44;28.70;20.60
8481;DHT22;4277;51.354;6.740;2022-08-03T11:08:30;28.70;19.90
8481;DHT22;4277;51.354;6.740;2022-08-03T11:11:01;28.80;21.20
8481;DHT22;4277;51.354;6.740;2022-08-03T11:13:29;28.80;20.50
8481;DHT22;4277;51.354;6.740;2022-08-03T11:15:58;28.80;12.40
8481;DHT22;4277;51.354;6.740;2022-08-03T11:18:24;29.00;12.50
8481;DHT22;4277;51.354;6.740;2022-08-03T11:20:55;28.90;14.30
8481;DHT22;4277;51.354;6.740;2022-08-03T11:23:44;28.90;13.70
8481;DHT22;4277;51.354;6.740;2022-08-03T11:26:14;29.00;10.90
8481;DHT22;4277;51.354;6.740;2022-08-03T11:28:41;29.20;8.20
8481;DHT22;4277;51.354;6.740;2022-08-03T11:34:07;29.30;12.30
8481;DHT22;4277;51.354;6.740;2022-08-03T11:39:41;29.40;7.20
8481;DHT22;4277;51.354;6.740;2022-08-03T11:44:55;29.30;7.70
8481;DHT22;4277;51.354;6.740;2022-08-03T11:47:22;29.30;5.40
8481;DHT22;4277;51.354;6.740;2022-08-03T11:49:50;29.30;5.00
8481;DHT22;4277;51.354;6.740;2022-08-03T11:52:17;29.40;6.10
8481;DHT22;4277;51.354;6.740;2022-08-03T11:54:43;29.60;5.10
8481;DHT22;4277;51.354;6.740;2022-08-03T11:57:09;29.70;5.20
8481;DHT22;4277;51.354;6.740;2022-08-03T11:59:35;29.80;1.90
8481;DHT22;4277;51.354;6.740;2022-08-03T12:02:11;29.80;1.00
8481;DHT22;4277;51.354;6.740;2022-08-03T12:04:50;29.70;2.60
8481;DHT22;4277;51.354;6.740;2022-08-03T12:07:16;29.80;1.00
8481;DHT22;4277;51.354;6.740;2022-08-03T12:09:43;29.90;1.40
8481;DHT22;4277;51.354;6.740;2022-08-03T12:12:08;29.90;1.00
8481;DHT22;4277;51.354;6.740;2022-08-03T12:14:34;30.00;1.00
8481;DHT22;4277;51.354;6.740;2022-08-03T12:17:00;30.20;1.90
8481;DHT22;4277;51.354;6.740;2022-08-03T12:19:25;30.10;3.20
8481;DHT22;4277;51.354;6.740;2022-08-03T12:21:51;30.10;1.00
8481;DHT22;4277;51.354;6.740;2022-08-03T12:24:16;30.20;1.00
8481;DHT22;4277;51.354;6.740;2022-08-03T12:26:47;30.10;1.00
8481;DHT22;4277;51.354;6.740;2022-08-03T12:29:21;30.10;1.00
8481;DHT22;4277;51.354;6.740;2022-08-03T12:31:47;30.10;1.00
8481;DHT22;4277;51.354;6.740;2022-08-03T12:34:13;30.10;1.00
8481;DHT22;4277;51.354;6.740;2022-08-03T12:36:52;30.20;1.00
8481;DHT22;4277;51.354;6.740;2022-08-03T12:39:22;30.20;1.00
8481;DHT22;4277;51.354;6.740;2022-08-03T12:41:52;30.50;1.00
8481;DHT22;4277;51.354;6.740;2022-08-03T12:44:29;30.50;1.00
8481;DHT22;4277;51.354;6.740;2022-08-03T12:46:57;30.30;1.00
8481;DHT22;4277;51.354;6.740;2022-08-03T12:49:23;30.60;1.00
8481;DHT22;4277;51.354;6.740;2022-08-03T12:54:19;30.80;1.00
8481;DHT22;4277;51.354;6.740;2022-08-03T12:57:05;30.90;1.00
8481;DHT22;4277;51.354;6.740;2022-08-03T12:59:33;31.00;1.00
8481;DHT22;4277;51.354;6.740;2022-08-03T13:01:59;31.00;1.00
8481;DHT22;4277;51.354;6.740;2022-08-03T13:07:03;31.10;1.00
8481;DHT22;4277;51.354;6.740;2022-08-03T13:09:31;31.00;1.00
8481;DHT22;4277;51.354;6.740;2022-08-03T13:12:12;31.10;1.00
8481;DHT22;4277;51.354;6.740;2022-08-03T13:14:37;31.20;1.00
8481;DHT22;4277;51.354;6.740;2022-08-03T13:17:04;31.20;1.00
8481;DHT22;4277;51.354;6.740;2022-08-03T13:19:34;31.30;1.00
8481;DHT22;4277;51.354;6.740;2022-08-03T13:22:00;31.40;1.00
8481;DHT22;4277;51.354;6.740;2022-08-03T13:24:34;31.60;1.00
8481;DHT22;4277;51.354;6.740;2022-08-03T13:27:00;31.60;1.00
8481;DHT22;4277;51.354;6.740;2022-08-03T13:29:27;31.60;1.00
8481;DHT22;4277;51.354;6.740;2022-08-03T13:31:52;31.60;1.00
8481;DHT22;4277;51.354;6.740;2022-08-03T13:34:18;31.70;1.00
8481;DHT22;4277;51.354;6.740;2022-08-03T13:36:43;31.80;1.00
8481;DHT22;4277;51.354;6.740;2022-08-03T13:39:09;32.00;1.00
8481;DHT22;4277;51.354;6.740;2022-08-03T13:41:35;32.10;1.00
8481;DHT22;4277;51.354;6.740;2022-08-03T13:44:00;32.20;1.00
8481;DHT22;4277;51.354;6.740;2022-08-03T13:46:26;31.90;1.00
8481;DHT22;4277;51.354;6.740;2022-08-03T13:48:52;32.30;1.00
8481;DHT22;4277;51.354;6.740;2022-08-03T13:51:17;32.40;1.00
8481;DHT22;4277;51.354;6.740;2022-08-03T13:53:43;32.40;1.00
8481;DHT22;4277;51.354;6.740;2022-08-03T13:56:08;32.40;1.00
8481;DHT22;4277;51.354;6.740;2022-08-03T13:58:34;32.40;1.00
8481;DHT22;4277;51.354;6.740;2022-08-03T14:00:59;32.30;1.00
8481;DHT22;4277;51.354;6.740;2022-08-03T14:03:25;32.30;1.00
8481;DHT22;4277;51.354;6.740;2022-08-03T14:05:50;32.30;1.00
8481;DHT22;4277;51.354;6.740;2022-08-03T14:08:16;32.50;1.00
8481;DHT22;4277;51.354;6.740;2022-08-03T14:10:43;32.50;1.00
8481;DHT22;4277;51.354;6.740;2022-08-03T14:13:10;32.40;1.00
8481;DHT22;4277;51.354;6.740;2022-08-03T14:15:36;32.40;1.00
8481;DHT22;4277;51.354;6.740;2022-08-03T14:18:02;32.40;1.00
8481;DHT22;4277;51.354;6.740;2022-08-03T14:20:28;32.40;1.00
8481;DHT22;4277;51.354;6.740;2022-08-03T14:22:54;32.30;1.00
8481;DHT22;4277;51.354;6.740;2022-08-03T14:25:20;32.40;1.00
8481;DHT22;4277;51.354;6.740;2022-08-03T14:27:45;32.40;1.00
8481;DHT22;4277;51.354;6.740;2022-08-03T14:30:11;32.50;1.00
8481;DHT22;4277;51.354;6.740;2022-08-03T14:32:37;32.60;1.00
8481;DHT22;4277;51.354;6.740;2022-08-03T14:35:03;32.70;1.00
8481;DHT22;4277;51.354;6.740;2022-08-03T14:37:29;32.60;1.00
8481;DHT22;4277;51.354;6.740;2022-08-03T14:39:54;32.40;1.00
8481;DHT22;4277;51.354;6.740;2022-08-03T14:42:20;32.20;1.00
8481;DHT22;4277;51.354;6.740;2022-08-03T14:44:46;32.00;1.00
8481;DHT22;4277;51.354;6.740;2022-08-03T14:47:11;32.00;1.00
8481;DHT22;4277;51.354;6.740;2022-08-03T14:49:37;31.80;1.00
8481;DHT22;4277;51.354;6.740;2022-08-03T14:52:04;31.70;1.00
8481;DHT22;4277;51.354;6.740;2022-08-03T14:54:29;31.60;1.00
8481;DHT22;4277;51.354;6.740;2022-08-03T14:56:56;31.70;1.00
8481;DHT22;4277;51.354;6.740;2022-08-03T14:59:22;31.60;1.00
8481;DHT22;4277;51.354;6.740;2022-08-03T15:01:47;31.70;1.00
8481;DHT22;4277;51.354;6.740;2022-08-03T15:04:13;31.70;1.00
8481;DHT22;4277;51.354;6.740;2022-08-03T15:06:38;31.90;1.00
8481;DHT22;4277;51.354;6.740;2022-08-03T15:09:04;32.00;1.00
8481;DHT22;4277;51.354;6.740;2022-08-03T15:11:30;32.10;1.00
8481;DHT22;4277;51.354;6.740;2022-08-03T15:13:55;32.10;1.00
8481;DHT22;4277;51.354;6.740;2022-08-03T15:16:21;32.20;1.00
8481;DHT22;4277;51.354;6.740;2022-08-03T15:18:46;32.10;1.00
8481;DHT22;4277;51.354;6.740;2022-08-03T15:21:12;32.10;1.00
8481;DHT22;4277;51.354;6.740;2022-08-03T15:23:37;32.20;1.00
8481;DHT22;4277;51.354;6.740;2022-08-03T15:26:03;32.20;1.00
8481;DHT22;4277;51.354;6.740;2022-08-03T15:28:29;32.40;1.00
8481;DHT22;4277;51.354;6.740;2022-08-03T15:30:55;32.50;1.00
8481;DHT22;4277;51.354;6.740;2022-08-03T15:33:20;32.60;1.00
8481;DHT22;4277;51.354;6.740;2022-08-03T15:35:46;32.70;1.00
8481;DHT22;4277;51.354;6.740;2022-08-03T15:38:12;32.80;1.00
8481;DHT22;4277;51.354;6.740;2022-08-03T15:40:37;32.80;1.00
8481;DHT22;4277;51.354;6.740;2022-08-03T15:43:03;32.70;1.00
8481;DHT22;4277;51.354;6.740;2022-08-03T15:45:28;32.90;1.00
8481;DHT22;4277;51.354;6.740;2022-08-03T15:47:54;33.00;1.00
8481;DHT22;4277;51.354;6.740;2022-08-03T15:50:19;33.10;1.00
8481;DHT22;4277;51.354;6.740;2022-08-03T15:52:45;33.10;1.00
8481;DHT22;4277;51.354;6.740;2022-08-03T15:55:10;33.10;1.00
8481;DHT22;4277;51.354;6.740;2022-08-03T15:57:36;33.10;1.00
8481;DHT22;4277;51.354;6.740;2022-08-03T16:00:04;33.00;1.00
8481;DHT22;4277;51.354;6.740;2022-08-03T16:02:30;33.10;1.00
8481;DHT22;4277;51.354;6.740;2022-08-03T16:04:57;33.10;1.00
8481;DHT22;4277;51.354;6.740;2022-08-03T16:07:22;33.10;1.00
8481;DHT22;4277;51.354;6.740;2022-08-03T16:10:07;33.00;1.00
8481;DHT22;4277;51.354;6.740;2022-08-03T16:12:33;33.10;1.00
8481;DHT22;4277;51.354;6.740;2022-08-03T16:14:59;33.10;1.00
8481;DHT22;4277;51.354;6.740;2022-08-03T16:17:25;33.10;1.00
8481;DHT22;4277;51.354;6.740;2022-08-03T16:19:51;33.50;1.00
8481;DHT22;4277;51.354;6.740;2022-08-03T16:22:17;33.50;1.00
8481;DHT22;4277;51.354;6.740;2022-08-03T16:24:42;33.70;1.00
8481;DHT22;4277;51.354;6.740;2022-08-03T16:27:08;33.70;1.00
8481;DHT22;4277;51.354;6.740;2022-08-03T16:29:33;33.90;1.00
8481;DHT22;4277;51.354;6.740;2022-08-03T16:31:59;34.30;1.00
8481;DHT22;4277;51.354;6.740;2022-08-03T16:34:32;34.40;1.00
8481;DHT22;4277;51.354;6.740;2022-08-03T16:36:57;34.20;1.00
8481;DHT22;4277;51.354;6.740;2022-08-03T16:39:23;34.20;1.00
8481;DHT22;4277;51.354;6.740;2022-08-03T16:41:48;34.40;1.00
8481;DHT22;4277;51.354;6.740;2022-08-03T16:44:14;34.60;1.00
8481;DHT22;4277;51.354;6.740;2022-08-03T16:46:39;34.60;1.00
8481;DHT22;4277;51.354;6.740;2022-08-03T16:49:07;34.80;1.00
8481;DHT22;4277;51.354;6.740;2022-08-03T16:51:33;34.70;1.00
8481;DHT22;4277;51.354;6.740;2022-08-03T16:53:59;34.60;1.00
8481;DHT22;4277;51.354;6.740;2022-08-03T16:56:24;35.00;1.00
8481;DHT22;4277;51.354;6.740;2022-08-03T16:58:50;35.60;1.00
8481;DHT22;4277;51.354;6.740;2022-08-03T17:03:43;36.00;1.00
8481;DHT22;4277;51.354;6.740;2022-08-03T17:11:01;37.60;1.00
8481;DHT22;4277;51.354;6.740;2022-08-03T17:13:27;39.80;1.00
8481;DHT22;4277;51.354;6.740;2022-08-03T17:15:53;40.30;1.00
8481;DHT22;4277;51.354;6.740;2022-08-03T17:18:19;40.60;1.00
8481;DHT22;4277;51.354;6.740;2022-08-03T17:20:46;40.90;1.00
8481;DHT22;4277;51.354;6.740;2022-08-03T17:23:25;41.00;1.00
8481;DHT22;4277;51.354;6.740;2022-08-03T17:25:53;41.00;1.00
8481;DHT22;4277;51.354;6.740;2022-08-03T17:28:20;39.70;1.00
8481;DHT22;4277;51.354;6.740;2022-08-03T17:35:57;38.40;1.00
8481;DHT22;4277;51.354;6.740;2022-08-03T17:38:23;37.20;1.00
8481;DHT22;4277;51.354;6.740;2022-08-03T17:40:49;37.20;1.00
8481;DHT22;4277;51.354;6.740;2022-08-03T17:43:16;37.80;1.00
8481;DHT22;4277;51.354;6.740;2022-08-03T17:45:41;38.60;1.00
8481;DHT22;4277;51.354;6.740;2022-08-03T17:48:07;39.20;1.00
8481;DHT22;4277;51.354;6.740;2022-08-03T17:50:40;39.60;1.00
8481;DHT22;4277;51.354;6.740;2022-08-03T17:53:08;39.90;1.00
8481;DHT22;4277;51.354;6.740;2022-08-03T17:55:40;40.10;1.00
8481;DHT22;4277;51.354;6.740;2022-08-03T17:58:12;39.80;1.00
8481;DHT22;4277;51.354;6.740;2022-08-03T18:00:39;39.50;1.00
8481;DHT22;4277;51.354;6.740;2022-08-03T18:03:43;39.30;1.00
8481;DHT22;4277;51.354;6.740;2022-08-03T18:06:11;38.60;1.00
8481;DHT22;4277;51.354;6.740;2022-08-03T18:11:12;37.60;1.00
8481;DHT22;4277;51.354;6.740;2022-08-03T18:16:35;36.10;1.00
8481;DHT22;4277;51.354;6.740;2022-08-03T18:19:02;34.70;1.00
8481;DHT22;4277;51.354;6.740;2022-08-03T18:21:28;34.30;1.00
8481;DHT22;4277;51.354;6.740;2022-08-03T18:23:55;33.80;1.00
8481;DHT22;4277;51.354;6.740;2022-08-03T18:26:21;33.40;1.00
8481;DHT22;4277;51.354;6.740;2022-08-03T18:28:48;33.00;1.00
8481;DHT22;4277;51.354;6.740;2022-08-03T18:31:15;32.60;1.00
8481;DHT22;4277;51.354;6.740;2022-08-03T18:33:41;32.40;1.00
8481;DHT22;4277;51.354;6.740;2022-08-03T18:36:09;32.10;1.00
8481;DHT22;4277;51.354;6.740;2022-08-03T18:38:39;31.80;1.00
8481;DHT22;4277;51.354;6.740;2022-08-03T18:41:05;31.60;1.00
8481;DHT22;4277;51.354;6.740;2022-08-03T18:43:32;31.40;1.00
8481;DHT22;4277;51.354;6.740;2022-08-03T18:45:59;31.20;1.00
8481;DHT22;4277;51.354;6.740;2022-08-03T18:53:48;30.60;1.00
8481;DHT22;4277;51.354;6.740;2022-08-03T18:59:09;30.30;1.00
8481;DHT22;4277;51.354;6.740;2022-08-03T19:01:51;30.20;1.00
8481;DHT22;4277;51.354;6.740;2022-08-03T19:04:21;30.00;1.00
8481;DHT22;4277;51.354;6.740;2022-08-03T19:06:53;29.90;1.00
8481;DHT22;4277;51.354;6.740;2022-08-03T19:09:29;29.70;1.00
8481;DHT22;4277;51.354;6.740;2022-08-03T19:11:57;29.60;1.00
8481;DHT22;4277;51.354;6.740;2022-08-03T19:14:29;29.40;1.00
8481;DHT22;4277;51.354;6.740;2022-08-03T19:17:06;29.30;1.00
8481;DHT22;4277;51.354;6.740;2022-08-03T19:19:32;29.20;1.00
8481;DHT22;4277;51.354;6.740;2022-08-03T19:21:58;29.00;1.00
8481;DHT22;4277;51.354;6.740;2022-08-03T19:24:25;28.90;1.00
8481;DHT22;4277;51.354;6.740;2022-08-03T19:26:52;28.80;1.00
8481;DHT22;4277;51.354;6.740;2022-08-03T19:29:22;28.80;1.00
8481;DHT22;4277;51.354;6.740;2022-08-03T19:31:48;28.70;1.00
8481;DHT22;4277;51.354;6.740;2022-08-03T19:34:17;28.50;1.00
8481;DHT22;4277;51.354;6.740;2022-08-03T19:36:44;28.50;1.00
8481;DHT22;4277;51.354;6.740;2022-08-03T19:39:09;28.30;1.00
8481;DHT22;4277;51.354;6.740;2022-08-03T19:41:37;28.30;1.00
8481;DHT22;4277;51.354;6.740;2022-08-03T19:44:10;28.30;1.00
8481;DHT22;4277;51.354;6.740;2022-08-03T19:46:53;28.20;1.20
8481;DHT22;4277;51.354;6.740;2022-08-03T19:49:25;28.10;1.80
8481;DHT22;4277;51.354;6.740;2022-08-03T19:51:51;28.00;3.30
8481;DHT22;4277;51.354;6.740;2022-08-03T19:54:19;27.80;2.70
8481;DHT22;4277;51.354;6.740;2022-08-03T19:56:47;27.80;3.00
8481;DHT22;4277;51.354;6.740;2022-08-03T19:59:14;27.70;5.50
8481;DHT22;4277;51.354;6.740;2022-08-03T20:01:41;27.70;8.20
8481;DHT22;4277;51.354;6.740;2022-08-03T20:04:11;27.60;10.50
8481;DHT22;4277;51.354;6.740;2022-08-03T20:06:38;27.50;11.80
8481;DHT22;4277;51.354;6.740;2022-08-03T20:09:04;27.40;10.30
8481;DHT22;4277;51.354;6.740;2022-08-03T20:11:30;27.30;9.50
8481;DHT22;4277;51.354;6.740;2022-08-03T20:13:57;27.30;9.60
8481;DHT22;4277;51.354;6.740;2022-08-03T20:16:23;27.30;14.30
8481;DHT22;4277;51.354;6.740;2022-08-03T20:18:48;27.30;16.30
8481;DHT22;4277;51.354;6.740;2022-08-03T20:21:15;27.20;17.00
8481;DHT22;4277;51.354;6.740;2022-08-03T20:23:43;27.10;19.10
8481;DHT22;4277;51.354;6.740;2022-08-03T20:26:14;27.10;18.10
8481;DHT22;4277;51.354;6.740;2022-08-03T20:28:49;27.00;21.20
8481;DHT22;4277;51.354;6.740;2022-08-03T20:31:15;27.00;23.30
8481;DHT22;4277;51.354;6.740;2022-08-03T20:33:41;26.80;20.70
8481;DHT22;4277;51.354;6.740;2022-08-03T20:36:06;26.80;21.30
8481;DHT22;4277;51.354;6.740;2022-08-03T20:38:32;26.70;22.50
8481;DHT22;4277;51.354;6.740;2022-08-03T20:40:58;26.70;23.60
8481;DHT22;4277;51.354;6.740;2022-08-03T20:43:23;26.70;23.60
8481;DHT22;4277;51.354;6.740;2022-08-03T20:45:49;26.70;27.60
8481;DHT22;4277;51.354;6.740;2022-08-03T20:48:16;26.70;27.70
8481;DHT22;4277;51.354;6.740;2022-08-03T20:50:43;26.60;28.90
8481;DHT22;4277;51.354;6.740;2022-08-03T20:53:09;26.60;29.90
8481;DHT22;4277;51.354;6.740;2022-08-03T20:55:36;26.50;30.60
8481;DHT22;4277;51.354;6.740;2022-08-03T20:58:02;26.40;30.20
8481;DHT22;4277;51.354;6.740;2022-08-03T21:00:27;26.30;31.40
8481;DHT22;4277;51.354;6.740;2022-08-03T21:02:53;26.20;34.80
8481;DHT22;4277;51.354;6.740;2022-08-03T21:05:19;26.10;35.90
8481;DHT22;4277;51.354;6.740;2022-08-03T21:07:52;26.10;35.70
8481;DHT22;4277;51.354;6.740;2022-08-03T21:10:19;26.10;36.60
8481;DHT22;4277;51.354;6.740;2022-08-03T21:13:01;26.10;39.40
8481;DHT22;4277;51.354;6.740;2022-08-03T21:15:31;26.10;41.50
8481;DHT22;4277;51.354;6.740;2022-08-03T21:17:59;26.00;42.40
8481;DHT22;4277;51.354;6.740;2022-08-03T21:20:29;26.00;42.40
8481;DHT22;4277;51.354;6.740;2022-08-03T21:22:56;25.90;43.60
8481;DHT22;4277;51.354;6.740;2022-08-03T21:25:30;25.90;45.90
8481;DHT22;4277;51.354;6.740;2022-08-03T21:27:57;25.80;48.40
8481;DHT22;4277;51.354;6.740;2022-08-03T21:30:25;25.80;48.40
8481;DHT22;4277;51.354;6.740;2022-08-03T21:32:54;25.70;49.40
8481;DHT22;4277;51.354;6.740;2022-08-03T21:35:21;25.70;50.50
8481;DHT22;4277;51.354;6.740;2022-08-03T21:37:47;25.70;51.60
8481;DHT22;4277;51.354;6.740;2022-08-03T21:40:15;25.60;54.10
8481;DHT22;4277;51.354;6.740;2022-08-03T21:42:42;25.50;54.20
8481;DHT22;4277;51.354;6.740;2022-08-03T21:45:11;25.50;54.80
8481;DHT22;4277;51.354;6.740;2022-08-03T21:47:39;25.50;56.30
8481;DHT22;4277;51.354;6.740;2022-08-03T21:50:08;25.40;55.10
8481;DHT22;4277;51.354;6.740;2022-08-03T21:52:40;25.40;57.30
8481;DHT22;4277;51.354;6.740;2022-08-03T21:55:06;25.30;58.70
8481;DHT22;4277;51.354;6.740;2022-08-03T21:57:33;25.30;62.30
8481;DHT22;4277;51.354;6.740;2022-08-03T22:00:09;25.20;62.60
8481;DHT22;4277;51.354;6.740;2022-08-03T22:02:37;25.20;63.90
8481;DHT22;4277;51.354;6.740;2022-08-03T22:05:04;25.20;63.90
8481;DHT22;4277;51.354;6.740;2022-08-03T22:07:30;25.20;65.50
8481;DHT22;4277;51.354;6.740;2022-08-03T22:09:58;25.10;68.90
8481;DHT22;4277;51.354;6.740;2022-08-03T22:12:25;25.10;70.70
8481;DHT22;4277;51.354;6.740;2022-08-03T22:14:54;25.00;71.00
8481;DHT22;4277;51.354;6.740;2022-08-03T22:17:20;25.00;71.10
8481;DHT22;4277;51.354;6.740;2022-08-03T22:19:52;24.90;70.60
8481;DHT22;4277;51.354;6.740;2022-08-03T22:22:25;24.90;73.60
8481;DHT22;4277;51.354;6.740;2022-08-03T22:24:58;24.90;74.70
8481;DHT22;4277;51.354;6.740;2022-08-03T22:27:26;24.80;76.30
8481;DHT22;4277;51.354;6.740;2022-08-03T22:30:00;24.70;76.20
8481;DHT22;4277;51.354;6.740;2022-08-03T22:32:27;24.70;75.30
8481;DHT22;4277;51.354;6.740;2022-08-03T22:34:54;24.70;79.30
8481;DHT22;4277;51.354;6.740;2022-08-03T22:37:24;24.70;78.10
8481;DHT22;4277;51.354;6.740;2022-08-03T22:39:50;24.60;79.10
8481;DHT22;4277;51.354;6.740;2022-08-03T22:42:18;24.60;81.30
8481;DHT22;4277;51.354;6.740;2022-08-03T22:44:46;24.60;80.60
8481;DHT22;4277;51.354;6.740;2022-08-03T22:47:13;24.60;81.40
8481;DHT22;4277;51.354;6.740;2022-08-03T22:49:40;24.50;80.80
8481;DHT22;4277;51.354;6.740;2022-08-03T22:52:10;24.50;80.20
8481;DHT22;4277;51.354;6.740;2022-08-03T22:54:36;24.60;81.80
8481;DHT22;4277;51.354;6.740;2022-08-03T22:57:03;24.50;83.30
8481;DHT22;4277;51.354;6.740;2022-08-03T22:59:29;24.50;85.10
8481;DHT22;4277;51.354;6.740;2022-08-03T23:02:00;24.50;85.00
8481;DHT22;4277;51.354;6.740;2022-08-03T23:04:27;24.40;85.70
8481;DHT22;4277;51.354;6.740;2022-08-03T23:06:55;24.40;86.20
8481;DHT22;4277;51.354;6.740;2022-08-03T23:09:23;24.30;80.60